Sirocco — V7JF6 — position and weather

sailwx.info

Track history (hours):
 
Tides and Currents Weather Stations Pressure Air Temp Water Temp Dewpoint Dewpoint Depression Visibility Wind Speed Wind Dir Waves Ship Positions

Sirocco

Last reported at 2018-Jan-19 16:48 UTC. Time now 2018-Feb-25 23:56 UTC.
Position N 29°34' W 094°55'.
Warning: this ship's position is 37 days out of date.

Length 226 m; draft 12.1 m.

Type: Tanker. MMSI: 538006045.

Date/timePositionNaut miles runAvg speedWind from/ knotsBaromVisibWave heightAir tempDewpointWater temp
2018-Jan-19 16:48N 29°34' W 094°55'3 9.4
2018-Jan-19 16:26N 29°37' W 094°57'3 8.0
2018-Jan-19 16:00N 29°40' W 094°58'  
2018-Jan-12 06:05N 29°44' W 095°07'0 0.1
2018-Jan-12 06:00N 29°44' W 095°07'0 0.9
2018-Jan-12 05:30N 29°44' W 095°07'3 5.4
2018-Jan-12 05:00N 29°45' W 095°04'4 7.5
2018-Jan-12 04:31N 29°42' W 095°01'5 9.7
2018-Jan-12 04:00N 29°38' W 094°58'611.6
2018-Jan-12 03:30N 29°33' W 094°55'613.0
2018-Jan-12 03:00N 29°28' W 094°51'712.4
2018-Jan-12 02:29N 29°22' W 094°48'3 2.2
2018-Jan-12 00:58N 29°21' W 094°44'0 0.0
2018-Jan-11 16:26N 29°21' W 094°44'  
Track history (hours):
 
Tides and Currents Weather Stations Pressure Air Temp Water Temp Dewpoint Dewpoint Depression Visibility Wind Speed Wind Dir Waves Ship Positions

Sirocco

Last reported at 2018-Jan-19 16:48 UTC. Time now 2018-Feb-25 23:56 UTC.
Position N 29°34' W 094°55'.
Warning: this ship's position is 37 days out of date.

Length 226 m; draft 12.1 m.

Type: Tanker. MMSI: 538006045.

Date/timePositionNaut miles runAvg speedWind from/ knotsBaromVisibWave heightAir tempDewpointWater temp
2018-Jan-19 16:48N 29°34' W 094°55'3 9.4
2018-Jan-19 16:26N 29°37' W 094°57'3 8.0
2018-Jan-19 16:00N 29°40' W 094°58'  
2018-Jan-12 06:05N 29°44' W 095°07'0 0.1
2018-Jan-12 06:00N 29°44' W 095°07'0 0.9
2018-Jan-12 05:30N 29°44' W 095°07'3 5.4
2018-Jan-12 05:00N 29°45' W 095°04'4 7.5
2018-Jan-12 04:31N 29°42' W 095°01'5 9.7
2018-Jan-12 04:00N 29°38' W 094°58'611.6
2018-Jan-12 03:30N 29°33' W 094°55'613.0
2018-Jan-12 03:00N 29°28' W 094°51'712.4
2018-Jan-12 02:29N 29°22' W 094°48'3 2.2
2018-Jan-12 00:58N 29°21' W 094°44'0 0.0
2018-Jan-11 16:26N 29°21' W 094°44'  

Dump ship's entire track history